NCAR-RAP Real-Time Weather Data

Output produced by METARs form (14 October 2019  23:22 UTC)
found at http://weather.rap.ucar.edu/surface/
 
KDCA 142252Z 20005KT 10SM CLR 20/11 A2999 RMK AO2 SLP155 T02000111
KDCA 142152Z 18009KT 10SM CLR 22/11 A2997 RMK AO2 SLP150 T02220106
KDCA 142052Z 22010KT 10SM CLR 24/06 A2997 RMK AO2 SLP147 T02440056 56013
KDCA 141952Z 21010KT 10SM CLR 25/05 A2997 RMK AO2 SLP148 T02500050
KDCA 141852Z 23006KT 10SM CLR 24/04 A2998 RMK AO2 SLP151 T02440044
KDCA 141752Z 16007KT 10SM CLR 23/08 A3000 RMK AO2 SLP160 T02280078 10239 20122 58020
KDCA 141654Z 28005KT 10SM CLR 23/03 A3003 RMK AO2 T02280033
KDCA 141652Z 10SM CLR 23/04 A3003 RMK AO2 SLP169 T02280039
KDCA 141552Z 07004KT 10SM CLR 20/11 A3005 RMK AO2 SLP174 T02000106
KDCA 141452Z 17005KT 10SM CLR 17/12 A3007 RMK AO2 SLP180 T01720117 51011
KDCA 141352Z 14003KT 10SM CLR 16/12 A3007 RMK AO2 SLP180 T01560117
KDCA 141252Z 03003KT 10SM CLR 15/11 A3005 RMK AO2 SLP177 T01500111
KDCA 141152Z 00000KT 9SM FEW120 SCT200 12/10 A3003 RMK AO2 SLP170 70012 T01220100 10144 20111 52021
KDCA 141052Z 34005KT 10SM FEW120 SCT200 12/10 A3002 RMK AO2 SLP165 T01170100
KDCA 140952Z 00000KT 10SM FEW200 12/11 A2999 RMK AO2 SLP155 T01220106
KDCA 140852Z 00000KT 10SM FEW200 13/11 A2997 RMK AO2 SLP149 T01280111 56009
KDCA 140752Z 25003KT 10SM FEW140 13/11 A2998 RMK AO2 SLP151 T01280111
KDCA 140652Z 00000KT 10SM FEW140 13/12 A2998 RMK AO2 SLP151 T01330117
KDCA 140554Z 00000KT 10SM FEW023 FEW140 14/12 A3000 RMK AO2 T01440122
KDCA 140552Z 00000KT 10SM CLR 14/12 A3000 RMK AO2 SLP157 T01440122 10156 20144 58006
KDCA 140452Z 00000KT 10SM SCT023 BKN140 16/12 A3001 RMK AO2 SLP160 T01560117 401940133
KDCA 140352Z 00000KT 10SM OVC024 16/12 A3002 RMK AO2 SLP165 T01560117
KDCA 140252Z 00000KT 10SM BKN021 OVC029 15/12 A3002 RMK AO2 SLP163 T01500117 58004 $
KDCA 140152Z 09003KT 10SM OVC022 15/12 A3002 RMK AO2 SLP167 T01500117 $
KDCA 140052Z 06003KT 10SM OVC028 14/11 A3003 RMK AO2 SLP168 T01440111 $
KDCA 140021Z 06004KT 10SM OVC029 14/12 A3003 RMK AO2 T01440117 $
KDCA 132352Z 05004KT 10SM BKN030 OVC036 14/12 A3003 RMK AO2 RAB01E13 SLP168 P0000 60012 T01440117 10189 20144 56002 $
KDCA 132252Z 10003KT 10SM SCT036 OVC044 15/12 A3003 RMK AO2 SLP169 T01500117 $
KDCA 132152Z 05006KT 10SM FEW036 BKN050 OVC060 15/12 A3003 RMK AO2 SLP169 T01500117 $
KDCA 132052Z 08006KT 10SM FEW029 SCT036 OVC050 15/11 A3003 RMK AO2 RAE21 SLP170 BINOVC P0007 60012 T01500111 58012 $
KDCA 132018Z 11004KT 10SM -RA SCT028 BKN037 OVC055 14/11 A3005 RMK AO2 P0007 T01440111 $
KDCA 132009Z 13005KT 9SM -RA BKN027 BKN035 OVC055 14/11 A3005 RMK AO2 P0007 T01440111 $
KDCA 132000Z 13004KT 3SM R01/5000VP6000FT +RA OVC027 14/11 A3005 RMK AO2 P0005 T01440111 $
KDCA 131952Z 15005KT 8SM -RA OVC027 15/11 A3006 RMK AO2 RAB1855 SLP178 P0005 T01500111 $
KDCA 131942Z 11006KT 5SM R01/6000FT -RA OVC027 16/12 A3004 RMK AO2 RAB1855 P0002 T01560117 $
KDCA 131910Z 13004KT 10SM -RA OVC028 17/09 A3005 RMK AO2 RAB1855 P0001 T01670089 $
KDCA 131852Z 00000KT 10SM OVC031 17/08 A3005 RMK AO2 RAB32E52 SLP176 P0000 T01720078 $
KDCA 131752Z VRB04KT 10SM OVC035 18/04 A3007 RMK AO2 SLP181 T01830044 10194 20133 58017 $
KDCA 131652Z VRB03KT 10SM SCT042 OVC100 18/03 A3009 RMK AO2 SLP188 T01830033
KDCA 131552Z VRB05KT 10SM SCT055 BKN070 17/03 A3011 RMK AO2 SLP194 T01720033
KDCA 131452Z 04007KT 10SM FEW055 FEW070 16/03 A3012 RMK AO2 SLP198 T01610033 58001
KDCA 131352Z 04007KT 10SM BKN055 15/03 A3013 RMK AO2 SLP203 T01500033
KDCA 131252Z 03009KT 10SM BKN060 BKN085 14/04 A3013 RMK AO2 SLP203 T01390039
KDCA 131152Z COR 04010KT 10SM OVC065 13/04 A3012 RMK AO2 RAB06E15 SLP200 P0000 60000 T01330039 10144 20133 50007
KDCA 131052Z 34009KT 10SM FEW045 BKN065 OVC095 13/04 A3015 RMK AO2 RAB0955E06 SLP207 P0000 T01330039
KDCA 130952Z 04010KT 10SM FEW055 BKN070 OVC090 14/05 A3010 RMK AO2 SLP193 T01390050
KDCA 130852Z 03009KT 10SM FEW048 OVC075 14/05 A3010 RMK AO2 SLP193 T01390050 53007
KDCA 130752Z 35008KT 10SM SCT050 BKN080 BKN100 14/05 A3009 RMK AO2 SLP188 T01390050
KDCA 130652Z 01009KT 10SM BKN047 BKN100 BKN250 14/04 A3008 RMK AO2 SLP186 T01390044
KDCA 130552Z 34008KT 10SM SCT100 SCT250 14/04 A3008 RMK AO2 SLP186 T01390044 10194 20139 53008
KDCA 130452Z 33009KT 10SM FEW100 SCT250 14/05 A3007 RMK AO2 SLP182 T01440050 402390128
KDCA 130352Z 34009KT 10SM SCT100 BKN130 BKN250 16/07 A3006 RMK AO2 SLP179 T01610072
KDCA 130252Z 34009KT 10SM FEW100 FEW130 SCT250 17/09 A3006 RMK AO2 SLP177 T01670094 51010
KDCA 130152Z 33006KT 10SM SCT100 SCT250 18/12 A3005 RMK AO2 SLP175 T01780117
KDCA 130052Z 34005KT 10SM BKN100 BKN250 19/12 A3004 RMK AO2 SLP171 T01890117
KDCA 122352Z 34005KT 10SM BKN110 BKN250 19/12 A3003 RMK AO2 SLP167 T01940117 10239 20194 53017